Terminal Aerodrome Forecast
Issued by NWS

Home | Current Version | Previous Version | Text Only | Print | Product List | Glossary On
Versions: 1 2 3 4 5 6 7 8 9 10 11 12
000
FTUS45 KFGZ 291740
TAFPGA
TAF
KPGA 291740Z 2918/3018 VRB05KT P6SM SCT060 OVC120
     FM291900 VRB05KT P6SM VCTS SCT060CB BKN080
      TEMPO 2919/2923 VRB10G20KT 5SM -TSRA BKN050CB
     FM292300 VRB05KT P6SM VCSH BKN050 OVC080
     FM300200 25005KT P6SM SCT050 SCT080=

USA.gov is the U.S. government's official web portal to all federal, state and local government web resources and services.